createdAt,value
2022-10-30T00:01:15.306Z,24.02
2022-10-30T00:03:19.934Z,25.15
2022-10-30T00:05:24.843Z,25.02
2022-10-30T00:07:29.044Z,23.33
2022-10-30T00:09:33.230Z,23.80
2022-10-30T00:11:37.400Z,25.02
2022-10-30T00:13:43.851Z,23.52
2022-10-30T00:15:53.367Z,24.40
2022-10-30T00:17:59.707Z,24.00
2022-10-30T00:20:04.972Z,23.42
2022-10-30T00:22:09.526Z,23.50
2022-10-30T00:24:13.894Z,23.77
2022-10-30T00:26:19.332Z,23.55
2022-10-30T00:28:24.144Z,24.05
2022-10-30T00:30:28.569Z,24.05
2022-10-30T00:32:33.088Z,22.75
2022-10-30T00:34:39.190Z,22.88
2022-10-30T00:36:45.263Z,21.75
2022-10-30T00:38:49.829Z,24.45
2022-10-30T00:40:57.229Z,23.60
2022-10-30T00:43:01.859Z,22.60
2022-10-30T00:45:06.986Z,22.40
2022-10-30T00:47:17.115Z,22.27
2022-10-30T00:51:29.332Z,22.52
2022-10-30T00:53:33.849Z,22.33
2022-10-30T00:55:41.535Z,21.85
2022-10-30T00:57:47.138Z,23.05
2022-10-30T00:59:52.638Z,22.02
2022-10-30T01:01:57.924Z,23.25
2022-10-30T01:04:05.105Z,22.25
2022-10-30T01:06:13.062Z,22.50
2022-10-30T01:08:18.944Z,24.23
2022-10-30T01:10:24.046Z,23.85
2022-10-30T01:12:28.387Z,24.05
2022-10-30T01:14:33.303Z,23.52
2022-10-30T01:16:50.321Z,24.02
2022-10-30T01:19:01.721Z,23.45
2022-10-30T01:21:21.049Z,23.05
2022-10-30T01:23:39.516Z,24.02
2022-10-30T01:25:57.913Z,23.85
2022-10-30T01:28:10.178Z,23.02
2022-10-30T01:30:28.027Z,23.35
2022-10-30T01:32:46.249Z,23.42
2022-10-30T01:34:57.537Z,23.27
2022-10-30T01:37:07.229Z,23.52
2022-10-30T01:39:17.401Z,23.35
2022-10-30T01:41:21.827Z,24.52
2022-10-30T01:43:26.334Z,23.45
2022-10-30T01:45:51.563Z,23.55
2022-10-30T01:48:15.635Z,24.45
2022-10-30T01:50:35.598Z,23.98
2022-10-30T01:52:49.211Z,24.25
2022-10-30T01:55:05.942Z,25.75
2022-10-30T01:57:17.843Z,25.88
2022-10-30T01:59:31.096Z,26.65
2022-10-30T02:01:36.981Z,26.52
2022-10-30T02:03:42.018Z,26.50
2022-10-30T02:05:50.371Z,27.20
2022-10-30T02:07:56.491Z,26.30
2022-10-30T02:10:05.783Z,28.63
2022-10-30T02:12:10.979Z,26.40
2022-10-30T02:14:40.288Z,28.42
2022-10-30T02:16:49.207Z,29.48
2022-10-30T02:18:56.704Z,27.33
2022-10-30T02:21:02.489Z,27.52
2022-10-30T02:23:09.309Z,28.90
2022-10-30T02:25:14.033Z,27.42
2022-10-30T02:27:19.031Z,28.70
2022-10-30T02:29:23.527Z,28.73
2022-10-30T02:31:27.946Z,28.27
2022-10-30T02:33:32.259Z,28.25
2022-10-30T02:35:36.887Z,29.75
2022-10-30T02:37:42.762Z,29.65
2022-10-30T02:39:47.119Z,29.90
2022-10-30T02:41:52.243Z,29.42
2022-10-30T02:43:56.706Z,29.75
2022-10-30T02:46:01.113Z,29.45
2022-10-30T02:48:05.713Z,29.90
2022-10-30T02:50:11.267Z,29.77
2022-10-30T02:52:15.673Z,29.25
2022-10-30T02:54:21.468Z,28.85
2022-10-30T02:56:26.758Z,29.05
2022-10-30T02:58:31.395Z,26.60
2022-10-30T03:00:35.842Z,26.92
2022-10-30T03:02:40.544Z,27.48
2022-10-30T03:04:44.780Z,26.92
2022-10-30T03:06:49.000Z,26.85
2022-10-30T03:08:53.225Z,27.25
2022-10-30T03:11:03.131Z,27.38
2022-10-30T03:15:12.052Z,26.50
2022-10-30T03:17:16.315Z,28.30
2022-10-30T03:19:20.902Z,27.42
2022-10-30T03:21:29.924Z,25.83
2022-10-30T03:23:34.600Z,25.65
2022-10-30T03:25:39.853Z,26.83
2022-10-30T03:27:45.398Z,26.63
2022-10-30T03:29:49.988Z,26.60
2022-10-30T03:31:54.198Z,27.42
2022-10-30T03:33:59.723Z,27.33
2022-10-30T03:36:04.544Z,27.98
2022-10-30T03:38:08.750Z,28.25
2022-10-30T03:40:13.823Z,27.38
2022-10-30T03:42:18.090Z,30.35
2022-10-30T03:44:24.326Z,27.52
2022-10-30T03:46:28.538Z,27.48
2022-10-30T03:48:41.946Z,27.25
2022-10-30T03:50:48.471Z,27.75
2022-10-30T03:52:55.205Z,26.52
2022-10-30T03:54:59.648Z,26.30
2022-10-30T03:57:03.844Z,27.30
2022-10-30T03:59:18.742Z,26.38
2022-10-30T04:01:40.856Z,26.70
2022-10-30T04:03:45.277Z,27.05
2022-10-30T04:05:51.173Z,25.88
2022-10-30T04:07:58.953Z,27.38
2022-10-30T04:10:03.867Z,24.30
2022-10-30T04:12:08.597Z,24.33
2022-10-30T04:14:12.828Z,25.05
2022-10-30T04:16:17.145Z,24.42
2022-10-30T04:18:23.594Z,24.67
2022-10-30T04:20:28.426Z,23.58
2022-10-30T04:22:32.633Z,21.95
2022-10-30T04:24:39.700Z,22.88
2022-10-30T04:26:44.341Z,23.48
2022-10-30T04:28:50.503Z,22.73
2022-10-30T04:30:54.842Z,22.60
2022-10-30T04:32:59.656Z,22.70
2022-10-30T04:35:06.180Z,22.00
2022-10-30T04:37:10.497Z,23.15
2022-10-30T04:39:15.297Z,22.73
2022-10-30T04:41:20.773Z,23.30
2022-10-30T04:43:34.221Z,23.58
2022-10-30T04:45:39.513Z,22.30
2022-10-30T04:47:44.545Z,21.58
2022-10-30T04:49:48.918Z,22.20
2022-10-30T04:51:55.896Z,22.45
2022-10-30T04:54:00.495Z,21.42
2022-10-30T04:56:08.495Z,22.95
2022-10-30T04:58:14.529Z,22.25
2022-10-30T05:00:21.341Z,21.73
2022-10-30T05:02:26.722Z,22.98
2022-10-30T05:04:31.615Z,23.50
2022-10-30T05:06:36.012Z,21.73
2022-10-30T05:08:41.751Z,21.17
2022-10-30T05:10:58.953Z,20.42
2022-10-30T05:13:03.370Z,21.02
2022-10-30T05:15:09.541Z,20.33
2022-10-30T05:17:15.209Z,19.92
2022-10-30T05:19:20.548Z,20.23
2022-10-30T05:21:30.537Z,20.00
2022-10-30T05:23:35.917Z,19.27
2022-10-30T05:25:42.105Z,19.63
2022-10-30T05:27:48.746Z,18.73
2022-10-30T05:29:55.725Z,18.73
2022-10-30T05:32:00.254Z,20.55
2022-10-30T05:34:16.787Z,19.50
2022-10-30T05:36:23.095Z,19.60
2022-10-30T05:38:27.905Z,19.23
2022-10-30T05:40:32.919Z,19.80
2022-10-30T05:42:38.788Z,18.45
2022-10-30T05:45:05.644Z,17.90
2022-10-30T05:47:13.472Z,19.30
2022-10-30T05:49:22.279Z,18.50
2022-10-30T05:51:26.633Z,18.95
2022-10-30T05:53:35.596Z,19.33
2022-10-30T05:55:40.735Z,18.58
2022-10-30T05:57:51.438Z,17.42
2022-10-30T05:59:55.828Z,17.73
2022-10-30T06:02:00.307Z,19.23
2022-10-30T06:04:05.389Z,19.70
2022-10-30T06:06:09.688Z,18.92
2022-10-30T06:08:16.295Z,19.05
2022-10-30T06:10:24.762Z,19.13
2022-10-30T06:13:00.801Z,18.88
2022-10-30T06:15:15.976Z,16.55
2022-10-30T06:17:20.184Z,16.88
2022-10-30T06:19:32.201Z,14.15
2022-10-30T06:22:00.195Z,18.67
2022-10-30T06:24:12.511Z,17.23
2022-10-30T06:28:44.691Z,16.00
2022-10-30T06:30:51.346Z,18.20
2022-10-30T06:32:59.003Z,17.45
2022-10-30T06:35:04.720Z,16.42
2022-10-30T06:37:09.098Z,16.58
2022-10-30T06:39:14.478Z,16.85
2022-10-30T06:41:40.163Z,16.80
2022-10-30T06:44:04.451Z,16.00
2022-10-30T06:46:10.131Z,17.20
2022-10-30T06:48:18.941Z,17.65
2022-10-30T06:50:30.316Z,18.52
2022-10-30T06:52:35.209Z,18.83
2022-10-30T06:54:41.385Z,16.17
2022-10-30T06:57:04.221Z,18.15
2022-10-30T06:59:28.474Z,13.45
2022-10-30T07:01:55.762Z,16.63
2022-10-30T07:04:04.695Z,16.20
2022-10-30T07:06:09.347Z,18.17
2022-10-30T07:08:15.311Z,14.98
2022-10-30T07:10:20.415Z,15.43
2022-10-30T07:12:43.067Z,18.00
2022-10-30T07:14:58.382Z,16.02
2022-10-30T07:17:09.948Z,16.02
2022-10-30T07:19:16.140Z,18.17
2022-10-30T07:21:20.594Z,18.45
2022-10-30T07:23:26.153Z,17.55
2022-10-30T07:25:37.642Z,15.82
2022-10-30T07:28:02.765Z,12.38
2022-10-30T07:30:37.143Z,14.82
2022-10-30T07:33:02.111Z,17.00
2022-10-30T07:35:38.686Z,13.10
2022-10-30T07:38:06.867Z,15.75
2022-10-30T07:40:23.850Z,17.15
2022-10-30T07:42:35.086Z,15.57
2022-10-30T07:44:58.151Z,15.93
2022-10-30T07:47:24.322Z,14.93
2022-10-30T07:49:54.669Z,16.20
2022-10-30T07:51:59.517Z,17.63
2022-10-30T07:54:04.154Z,16.90
2022-10-30T07:56:10.340Z,14.85
2022-10-30T07:58:29.775Z,15.57
2022-10-30T08:00:54.538Z,15.45
2022-10-30T08:03:08.914Z,15.82
2022-10-30T08:05:32.476Z,16.35
2022-10-30T08:07:57.376Z,15.70
2022-10-30T08:10:02.141Z,16.75
2022-10-30T08:12:08.027Z,19.38
2022-10-30T08:14:12.565Z,19.85
2022-10-30T08:16:18.406Z,18.45
2022-10-30T08:18:25.842Z,18.75
2022-10-30T08:20:30.457Z,18.20
2022-10-30T08:22:36.771Z,17.33
2022-10-30T08:24:42.488Z,19.02
2022-10-30T08:26:46.804Z,17.88
2022-10-30T08:28:51.597Z,19.77
2022-10-30T08:30:56.867Z,21.02
2022-10-30T08:33:18.760Z,19.40
2022-10-30T08:38:05.742Z,22.77
2022-10-30T08:40:12.542Z,21.33
2022-10-30T08:42:34.238Z,23.05
2022-10-30T08:44:42.961Z,22.17
2022-10-30T08:46:53.360Z,19.30
2022-10-30T08:48:58.249Z,18.48
2022-10-30T08:51:04.538Z,20.63
2022-10-30T08:53:15.818Z,19.45
2022-10-30T08:55:22.848Z,19.27
2022-10-30T08:57:28.125Z,18.52
2022-10-30T08:59:34.709Z,17.77
2022-10-30T09:01:39.448Z,17.20
2022-10-30T09:04:12.631Z,16.20
2022-10-30T09:06:37.171Z,20.42
2022-10-30T09:09:07.551Z,14.32
2022-10-30T09:11:23.897Z,15.65
2022-10-30T09:13:31.224Z,17.20
2022-10-30T09:15:36.994Z,18.08
2022-10-30T09:17:42.464Z,19.58
2022-10-30T09:22:05.277Z,19.60
2022-10-30T09:24:11.097Z,14.38
2022-10-30T09:26:18.332Z,17.20
2022-10-30T09:28:51.617Z,14.75
2022-10-30T09:31:14.235Z,14.88
2022-10-30T09:33:18.358Z,15.82
2022-10-30T09:35:48.611Z,15.73
2022-10-30T09:37:55.208Z,16.27
2022-10-30T09:39:59.454Z,19.42
2022-10-30T09:42:29.491Z,20.27
2022-10-30T09:44:52.412Z,21.67
2022-10-30T09:47:23.506Z,18.95
2022-10-30T09:49:52.033Z,16.25
2022-10-30T09:52:11.438Z,14.85
2022-10-30T09:54:36.350Z,18.63
2022-10-30T09:56:45.805Z,18.17
2022-10-30T09:59:01.013Z,18.08
2022-10-30T10:01:13.411Z,20.63
2022-10-30T10:03:35.453Z,19.88
2022-10-30T10:06:17.438Z,18.70
2022-10-30T10:08:39.132Z,18.77
2022-10-30T10:11:15.038Z,16.80
2022-10-30T10:13:31.039Z,15.85
2022-10-30T10:15:41.120Z,15.70
2022-10-30T10:17:47.228Z,18.08
2022-10-30T10:19:56.861Z,16.73
2022-10-30T10:22:03.661Z,17.38
2022-10-30T10:24:19.739Z,16.58
2022-10-30T10:26:48.449Z,20.02
2022-10-30T10:29:10.129Z,18.40
2022-10-30T10:31:29.459Z,18.10
2022-10-30T10:33:53.669Z,17.08
2022-10-30T10:36:10.173Z,16.30
2022-10-30T10:38:25.323Z,17.73
2022-10-30T10:40:41.642Z,17.73
2022-10-30T10:42:55.407Z,16.80
2022-10-30T10:45:16.943Z,17.95
2022-10-30T10:47:36.031Z,17.27
2022-10-30T10:49:55.275Z,19.17
2022-10-30T10:52:03.657Z,17.60
2022-10-30T10:54:13.457Z,17.25
2022-10-30T10:58:30.828Z,18.02
2022-10-30T11:00:35.712Z,16.98
2022-10-30T11:02:43.379Z,17.65
2022-10-30T11:04:51.159Z,16.98
2022-10-30T11:06:57.456Z,16.77
2022-10-30T11:09:15.392Z,16.58
2022-10-30T11:11:19.581Z,16.38
2022-10-30T11:13:26.138Z,16.20
2022-10-30T11:15:41.450Z,15.45
2022-10-30T11:17:53.704Z,16.33
2022-10-30T11:20:02.644Z,15.63
2022-10-30T11:22:19.467Z,15.30
2022-10-30T11:24:32.408Z,14.77
2022-10-30T11:26:37.319Z,15.93
2022-10-30T11:28:50.954Z,14.75
2022-10-30T11:31:19.038Z,14.30
2022-10-30T11:33:24.467Z,14.75
2022-10-30T11:35:28.715Z,14.23
2022-10-30T11:37:35.047Z,14.38
2022-10-30T11:39:39.289Z,14.85
2022-10-30T11:41:43.533Z,15.07
2022-10-30T11:43:50.248Z,14.88
2022-10-30T11:45:55.320Z,15.73
2022-10-30T11:48:02.949Z,14.60
2022-10-30T11:50:17.951Z,16.63
2022-10-30T11:52:25.769Z,15.27
2022-10-30T11:54:30.278Z,15.38
2022-10-30T11:56:36.580Z,16.10
2022-10-30T11:58:46.072Z,15.18
2022-10-30T12:01:04.151Z,14.90
2022-10-30T12:03:28.981Z,14.65
2022-10-30T12:05:37.842Z,15.77
2022-10-30T12:07:41.929Z,15.05
2022-10-30T12:09:48.160Z,15.02
2022-10-30T12:11:52.341Z,14.80
2022-10-30T12:13:56.981Z,15.43
2022-10-30T12:16:16.920Z,13.93
2022-10-30T12:20:30.471Z,13.55
2022-10-30T12:22:39.603Z,14.70
2022-10-30T12:24:46.040Z,15.00
2022-10-30T12:26:55.383Z,13.40
2022-10-30T12:29:02.350Z,14.68
2022-10-30T12:31:11.673Z,14.07
2022-10-30T12:33:21.929Z,13.25
2022-10-30T12:35:39.782Z,13.43
2022-10-30T12:37:45.513Z,12.90
2022-10-30T12:39:58.653Z,13.02
2022-10-30T12:42:08.430Z,13.63
2022-10-30T12:44:19.455Z,13.98
2022-10-30T12:46:34.489Z,13.27
2022-10-30T12:48:49.495Z,13.27
2022-10-30T12:51:05.913Z,13.27
2022-10-30T12:53:27.147Z,13.52
2022-10-30T12:55:36.939Z,14.38
2022-10-30T12:57:47.769Z,12.77
2022-10-30T13:00:00.797Z,14.43
2022-10-30T13:02:16.934Z,13.07
2022-10-30T13:04:26.503Z,12.63
2022-10-30T13:06:34.082Z,13.90
2022-10-30T13:08:44.937Z,12.68
2022-10-30T13:10:55.736Z,13.52
2022-10-30T13:13:04.695Z,14.02
2022-10-30T13:15:18.940Z,13.57
2022-10-30T13:17:23.262Z,14.85
2022-10-30T13:19:28.805Z,14.45
2022-10-30T13:21:37.261Z,13.52
2022-10-30T13:23:49.668Z,13.48
2022-10-30T13:26:06.168Z,13.55
2022-10-30T13:28:18.391Z,13.30
2022-10-30T13:30:24.435Z,12.38
2022-10-30T13:32:35.862Z,12.77
2022-10-30T13:34:50.819Z,12.95
2022-10-30T13:37:02.612Z,12.15
2022-10-30T13:39:19.368Z,12.60
2022-10-30T13:41:32.961Z,12.85
2022-10-30T13:43:44.957Z,13.32
2022-10-30T13:46:24.316Z,12.60
2022-10-30T13:48:40.837Z,12.00
2022-10-30T13:51:06.602Z,12.48
2022-10-30T13:53:15.973Z,11.85
2022-10-30T13:55:24.207Z,13.27
2022-10-30T13:57:35.077Z,12.93
2022-10-30T13:59:54.574Z,11.68
2022-10-30T14:02:05.459Z,12.38
2022-10-30T14:04:16.598Z,11.90
2022-10-30T14:06:33.691Z,11.90
2022-10-30T14:08:41.060Z,11.60
2022-10-30T14:10:47.416Z,11.65
2022-10-30T14:12:53.778Z,11.63
2022-10-30T14:14:57.911Z,12.32
2022-10-30T14:17:14.518Z,11.40
2022-10-30T14:19:19.891Z,11.18
2022-10-30T14:21:42.323Z,11.30
2022-10-30T14:23:46.524Z,11.57
2022-10-30T14:26:16.222Z,11.25
2022-10-30T14:28:22.182Z,11.45
2022-10-30T14:30:29.459Z,11.45
2022-10-30T14:32:49.172Z,10.98
2022-10-30T14:37:04.449Z,10.88
2022-10-30T14:39:28.810Z,13.38
2022-10-30T14:41:46.022Z,11.90
2022-10-30T14:44:00.509Z,11.27
2022-10-30T14:46:16.564Z,11.50
2022-10-30T14:48:29.529Z,12.75
2022-10-30T14:51:01.676Z,11.40
2022-10-30T14:53:23.276Z,10.88
2022-10-30T14:55:32.300Z,11.45
2022-10-30T14:57:48.581Z,11.82
2022-10-30T15:00:40.106Z,11.80
2022-10-30T15:02:54.550Z,12.57
2022-10-30T15:05:16.108Z,12.20
2022-10-30T15:07:27.513Z,12.43
2022-10-30T15:10:03.206Z,14.05
2022-10-30T15:12:24.269Z,13.23
2022-10-30T15:14:53.057Z,13.00
2022-10-30T15:17:01.156Z,12.73
2022-10-30T15:19:17.156Z,16.42
2022-10-30T15:21:25.825Z,19.80
2022-10-30T15:23:32.620Z,22.10
2022-10-30T15:25:46.098Z,25.85
2022-10-30T15:27:53.264Z,26.20
2022-10-30T15:30:02.495Z,26.15
2022-10-30T15:32:17.452Z,28.23
2022-10-30T15:34:23.710Z,42.65
2022-10-30T15:36:30.739Z,29.90
2022-10-30T15:38:35.335Z,39.55
2022-10-30T15:40:41.353Z,50.95
2022-10-30T15:42:47.687Z,33.65
2022-10-30T15:44:53.034Z,32.17
2022-10-30T15:46:59.333Z,31.10
2022-10-30T15:49:03.820Z,27.15
2022-10-30T15:51:13.529Z,44.10
2022-10-30T15:53:20.885Z,39.70
2022-10-30T15:55:29.738Z,43.95
2022-10-30T16:00:08.582Z,61.15
2022-10-30T16:02:22.625Z,50.50
2022-10-30T16:04:32.706Z,61.17
2022-10-30T16:06:37.059Z,66.53
2022-10-30T16:08:46.311Z,52.60
2022-10-30T16:10:51.334Z,70.68
2022-10-30T16:12:58.936Z,91.03
2022-10-30T16:15:08.705Z,89.60
2022-10-30T16:17:13.589Z,48.20
2022-10-30T16:19:27.931Z,48.92
2022-10-30T16:21:35.299Z,49.00
2022-10-30T16:23:42.093Z,43.78
2022-10-30T16:25:47.569Z,40.10
2022-10-30T16:27:51.893Z,64.18
2022-10-30T16:29:59.841Z,72.55
2022-10-30T16:32:04.719Z,93.30
2022-10-30T16:34:14.629Z,82.28
2022-10-30T16:36:20.704Z,54.55
2022-10-30T16:38:27.929Z,55.83
2022-10-30T16:40:32.821Z,37.05
2022-10-30T16:42:37.220Z,52.45
2022-10-30T16:44:41.571Z,43.53
2022-10-30T16:46:52.307Z,40.78
2022-10-30T16:49:00.211Z,36.97
2022-10-30T16:51:05.979Z,35.60
2022-10-30T16:53:18.818Z,44.42
2022-10-30T16:55:24.417Z,38.00
2022-10-30T16:57:31.317Z,37.08
2022-10-30T16:59:38.836Z,35.38
2022-10-30T17:01:44.813Z,35.60
2022-10-30T17:03:51.149Z,31.73
2022-10-30T17:06:01.464Z,20.88
2022-10-30T17:08:09.374Z,21.08
2022-10-30T17:10:32.934Z,16.63
2022-10-30T17:12:37.237Z,18.92
2022-10-30T17:14:51.282Z,15.35
2022-10-30T17:16:57.346Z,18.42
2022-10-30T17:19:24.096Z,16.35
2022-10-30T17:21:31.067Z,22.30
2022-10-30T17:23:36.544Z,23.67
2022-10-30T17:25:42.143Z,22.15
2022-10-30T17:27:49.496Z,19.25
2022-10-30T17:29:53.762Z,19.52
2022-10-30T17:31:59.984Z,25.70
2022-10-30T17:34:16.309Z,20.77
2022-10-30T17:36:20.667Z,22.15
2022-10-30T17:38:24.918Z,22.95
2022-10-30T17:40:29.405Z,22.75
2022-10-30T17:42:33.878Z,21.05
2022-10-30T17:44:38.720Z,22.05
2022-10-30T17:46:43.007Z,21.20
2022-10-30T17:48:47.544Z,21.52
2022-10-30T17:50:53.647Z,20.38
2022-10-30T17:52:58.215Z,20.60
2022-10-30T17:55:04.023Z,19.80
2022-10-30T17:57:10.905Z,19.25
2022-10-30T17:59:15.279Z,18.77
2022-10-30T18:01:21.870Z,18.58
2022-10-30T18:03:26.468Z,20.10
2022-10-30T18:05:31.633Z,19.23
2022-10-30T18:07:37.478Z,18.95
2022-10-30T18:09:41.971Z,17.83
2022-10-30T18:11:46.306Z,18.13
2022-10-30T18:13:51.321Z,18.65
2022-10-30T18:15:59.149Z,20.02
2022-10-30T18:18:03.820Z,17.70
2022-10-30T18:20:08.976Z,18.17
2022-10-30T18:22:13.187Z,16.70
2022-10-30T18:24:20.151Z,19.13
2022-10-30T18:26:26.066Z,17.60
2022-10-30T18:28:30.553Z,17.38
2022-10-30T18:30:34.891Z,18.52
2022-10-30T18:32:39.101Z,19.48
2022-10-30T18:34:43.253Z,17.65
2022-10-30T18:36:47.494Z,18.85
2022-10-30T18:38:52.778Z,22.60
2022-10-30T18:40:59.656Z,42.10
2022-10-30T18:43:03.990Z,122.43
2022-10-30T18:45:24.298Z,60.83
2022-10-30T18:47:28.515Z,60.10
2022-10-30T18:49:33.649Z,60.65
2022-10-30T18:51:38.680Z,68.60
2022-10-30T18:53:44.970Z,52.78
2022-10-30T18:55:49.383Z,53.63
2022-10-30T18:57:57.635Z,41.65
2022-10-30T19:00:04.250Z,34.35
2022-10-30T19:02:20.992Z,29.30
2022-10-30T19:04:25.329Z,31.75
2022-10-30T19:06:30.112Z,28.55
2022-10-30T19:08:34.488Z,25.80
2022-10-30T19:10:40.342Z,25.30
2022-10-30T19:13:04.283Z,22.27
2022-10-30T19:15:17.791Z,26.50
2022-10-30T19:17:22.249Z,28.35
2022-10-30T19:19:30.058Z,26.90
2022-10-30T19:21:35.452Z,28.15
2022-10-30T19:23:39.873Z,26.58
2022-10-30T19:25:46.136Z,26.15
2022-10-30T19:27:51.365Z,24.80
2022-10-30T19:29:55.918Z,23.00
2022-10-30T19:32:01.951Z,21.10
2022-10-30T19:34:06.282Z,20.63
2022-10-30T19:36:28.549Z,21.35
2022-10-30T19:38:34.276Z,20.00
2022-10-30T19:40:39.674Z,18.83
2022-10-30T19:42:44.196Z,19.30
2022-10-30T19:44:48.429Z,19.05
2022-10-30T19:46:53.267Z,18.50
2022-10-30T19:49:00.372Z,19.10
2022-10-30T19:51:07.281Z,18.35
2022-10-30T19:53:11.967Z,17.55
2022-10-30T19:55:16.705Z,16.83
2022-10-30T19:57:22.253Z,18.20
2022-10-30T19:59:27.337Z,18.20
2022-10-30T20:01:31.744Z,17.45
2022-10-30T20:03:36.594Z,18.45
2022-10-30T20:05:45.597Z,17.58
2022-10-30T20:08:02.602Z,18.90
2022-10-30T20:10:19.902Z,17.95
2022-10-30T20:12:24.221Z,17.48
2022-10-30T20:14:28.527Z,19.05
2022-10-30T20:16:32.888Z,17.85
2022-10-30T20:18:38.375Z,18.30
2022-10-30T20:20:48.987Z,16.83
2022-10-30T20:22:53.454Z,17.77
2022-10-30T20:24:57.725Z,18.20
2022-10-30T20:27:02.440Z,17.85
2022-10-30T20:29:06.821Z,18.30
2022-10-30T20:31:13.886Z,18.27
2022-10-30T20:33:19.405Z,17.52
2022-10-30T20:35:24.367Z,18.58
2022-10-30T20:37:30.165Z,18.02
2022-10-30T20:39:34.368Z,18.08
2022-10-30T20:41:41.657Z,18.95
2022-10-30T20:43:45.891Z,20.02
2022-10-30T20:45:50.309Z,18.75
2022-10-30T20:47:54.722Z,19.33
2022-10-30T20:49:58.931Z,19.05
2022-10-30T20:52:03.247Z,18.15
2022-10-30T20:54:08.949Z,19.23
2022-10-30T20:56:13.936Z,19.10
2022-10-30T20:58:18.490Z,18.63
2022-10-30T21:00:23.928Z,19.55
2022-10-30T21:02:28.355Z,18.83
2022-10-30T21:04:32.927Z,18.70
2022-10-30T21:06:37.342Z,18.55
2022-10-30T21:08:42.170Z,18.70
2022-10-30T21:10:48.463Z,17.45
2022-10-30T21:14:57.274Z,17.20
2022-10-30T21:17:01.900Z,17.13
2022-10-30T21:19:08.386Z,16.20
2022-10-30T21:21:13.632Z,17.17
2022-10-30T21:23:17.906Z,17.42
2022-10-30T21:25:22.389Z,17.08
2022-10-30T21:27:28.091Z,18.92
2022-10-30T21:29:34.318Z,19.33
2022-10-30T21:31:39.491Z,17.17
2022-10-30T21:33:43.775Z,17.33
2022-10-30T21:35:48.058Z,17.48
2022-10-30T21:37:52.435Z,17.13
2022-10-30T21:39:56.710Z,18.17
2022-10-30T21:42:00.950Z,17.45
2022-10-30T21:44:06.671Z,17.92
2022-10-30T21:46:12.965Z,20.38
2022-10-30T21:48:17.872Z,20.98
2022-10-30T21:50:22.377Z,19.58
2022-10-30T21:52:26.780Z,19.25
2022-10-30T21:54:31.057Z,19.85
2022-10-30T21:56:36.186Z,18.85
2022-10-30T21:58:40.684Z,19.58
2022-10-30T22:00:46.466Z,17.75
2022-10-30T22:02:52.195Z,20.42
2022-10-30T22:04:56.726Z,19.13
2022-10-30T22:07:01.029Z,19.38
2022-10-30T22:09:05.417Z,18.83
2022-10-30T22:11:11.917Z,19.55
2022-10-30T22:13:16.490Z,18.75
2022-10-30T22:15:20.856Z,18.48
2022-10-30T22:17:30.667Z,21.63
2022-10-30T22:19:38.646Z,21.58
2022-10-30T22:21:42.816Z,20.13
2022-10-30T22:23:47.117Z,21.02
2022-10-30T22:25:55.997Z,20.48
2022-10-30T22:28:00.705Z,19.50
2022-10-30T22:30:05.579Z,20.48
2022-10-30T22:32:10.220Z,21.77
2022-10-30T22:34:15.883Z,22.30
2022-10-30T22:36:22.575Z,21.73
2022-10-30T22:38:26.832Z,20.58
2022-10-30T22:40:31.137Z,21.40
2022-10-30T22:42:36.882Z,22.92
2022-10-30T22:44:41.179Z,23.73
2022-10-30T22:46:46.200Z,22.73
2022-10-30T22:48:50.971Z,22.90
2022-10-30T22:50:59.597Z,22.75
2022-10-30T22:53:03.919Z,23.58
2022-10-30T22:55:09.090Z,23.52
2022-10-30T22:57:13.324Z,21.98
2022-10-30T22:59:17.626Z,22.35
2022-10-30T23:01:24.637Z,24.02
2022-10-30T23:03:29.403Z,25.58
2022-10-30T23:05:33.789Z,24.90
2022-10-30T23:07:39.564Z,23.80
2022-10-30T23:09:43.824Z,24.25
2022-10-30T23:11:48.081Z,23.50
2022-10-30T23:13:53.243Z,22.95
2022-10-30T23:16:01.728Z,24.25
2022-10-30T23:18:06.831Z,22.90
2022-10-30T23:20:11.656Z,24.27
2022-10-30T23:22:16.050Z,22.35
2022-10-30T23:24:21.821Z,22.52
2022-10-30T23:26:28.654Z,24.38
2022-10-30T23:28:32.946Z,23.00
2022-10-30T23:30:37.652Z,24.42
2022-10-30T23:32:42.268Z,22.17
2022-10-30T23:34:46.688Z,22.88
2022-10-30T23:36:50.840Z,22.45
2022-10-30T23:38:56.038Z,22.08
2022-10-30T23:41:01.884Z,22.80
2022-10-30T23:43:06.074Z,22.05
2022-10-30T23:45:10.878Z,21.95
2022-10-30T23:47:15.141Z,21.85
2022-10-30T23:49:19.610Z,21.75
2022-10-30T23:51:24.171Z,21.40
2022-10-30T23:53:28.367Z,20.83
2022-10-30T23:55:32.877Z,20.30
2022-10-30T23:57:38.712Z,20.15
2022-10-30T23:59:43.130Z,20.70
